SPQU/AQP METAR and TAF weather

Enter ICAO airport designator
Station Type Date Time Source
SPQU METAR 2020/11/25 23:00 UTC NOAA

SPQU 252300Z 29005KT CAVOK 15/03 Q1025 NOSIG RMK PP000


Station Type Date Time Source
SPQU Decoded METAR 2020/11/25 23:00 UTC NOAA

Arequipa, Peru (SPQU) 16-19S 071-33W 2539M
Nov 25, 2020 - 06:00 PM EST / 2020.11.25 2300 UTC
Wind: from the WNW (290 degrees) at 6 MPH (5 KT):0
Visibility: greater than 7 mile(s):0
Temperature: 59 F (15 C)
Dew Point: 37 F (3 C)
Relative Humidity: 44%
Pressure (altimeter): 30.27 in. Hg (1025 hPa)
ob: SPQU 252300Z 29005KT CAVOK 15/03 Q1025 NOSIG RMK PP000
cycle: 23

Station Type Date Time Source
SPQU TAF 2020/11/25 18:33 UTC NOAA

TAF SPQU 251700Z 2518/2618 26010KT CAVOK TX24/25919Z TN11/2610Z
FM260100 03005KT CAVOK
FM261200 24005KT CAVOK

Example: see airport list